Time;durP1;ratioP1;P1;durP2;ratioP2;P2;SDS_P1;SDS_P2;PMS_P1;PMS_P2;Temp;Humidity;BMP_temperature;BMP_pressure;BME280_temperature;BME280_humidity;BME280_pressure;Samples;Min_cycle;Max_cycle;Signal;HPM_P1;HPM_P2
2023/09/13 00:00:40;;;;;;;18.17;17.58;;;23.00;99.90;;;;;;5026343;28;20202;-64
2023/09/13 00:03:06;;;;;;;17.73;17.13;;;23.00;99.90;;;;;;5038996;28;20284;-63
2023/09/13 00:05:33;;;;;;;18.85;18.15;;;23.00;99.90;;;;;;5039805;28;20669;-64
2023/09/13 00:08:02;;;;;;;18.98;18.27;;;22.90;99.90;;;;;;5035985;28;20200;-64
2023/09/13 00:10:28;;;;;;;18.60;17.90;;;22.80;99.90;;;;;;5022596;28;20687;-63
2023/09/13 00:12:55;;;;;;;18.50;17.90;;;22.80;99.90;;;;;;5036988;28;20591;-64
2023/09/13 00:15:22;;;;;;;20.63;19.92;;;22.70;99.90;;;;;;5033721;28;20296;-63
2023/09/13 00:17:49;;;;;;;18.67;18.08;;;22.70;99.90;;;;;;5037919;28;20407;-62
2023/09/13 00:20:17;;;;;;;19.73;19.02;;;22.70;99.90;;;;;;5032124;28;20204;-64
2023/09/13 00:22:45;;;;;;;18.83;18.17;;;22.70;99.90;;;;;;5031400;28;20204;-64
2023/09/13 00:25:13;;;;;;;17.42;16.83;;;22.60;99.90;;;;;;5031199;28;20206;-64
2023/09/13 00:27:40;;;;;;;18.10;17.50;;;22.60;99.90;;;;;;5031168;28;20203;-64
2023/09/13 00:30:10;;;;;;;17.23;16.63;;;22.60;99.90;;;;;;5031164;28;20220;-65
2023/09/13 00:32:36;;;;;;;18.08;17.48;;;22.60;99.90;;;;;;5030943;28;20209;-64
2023/09/13 00:35:03;;;;;;;17.88;17.27;;;22.60;99.90;;;;;;5033949;28;20645;-65
2023/09/13 00:37:30;;;;;;;17.40;16.73;;;22.50;99.90;;;;;;5031219;28;20208;-65
2023/09/13 00:39:57;;;;;;;18.58;17.95;;;22.50;99.90;;;;;;5030577;28;20208;-63
2023/09/13 00:42:25;;;;;;;19.35;18.65;;;22.50;99.90;;;;;;5031169;28;20211;-64
2023/09/13 00:44:52;;;;;;;17.20;16.60;;;22.60;99.90;;;;;;5030599;28;20213;-62
2023/09/13 00:47:19;;;;;;;17.23;16.63;;;22.50;99.90;;;;;;5031064;28;20766;-62
2023/09/13 00:49:47;;;;;;;17.85;17.25;;;22.50;99.90;;;;;;5030954;28;20230;-64
2023/09/13 00:52:14;;;;;;;17.58;16.98;;;22.40;99.90;;;;;;5031316;28;20645;-64
2023/09/13 00:54:42;;;;;;;17.10;16.50;;;22.40;99.90;;;;;;5027868;28;20228;-63
2023/09/13 00:57:08;;;;;;;18.08;17.48;;;22.40;99.90;;;;;;5024771;28;20667;-64
2023/09/13 00:59:37;;;;;;;18.38;17.77;;;22.50;99.90;;;;;;5023454;28;20205;-63
2023/09/13 01:02:04;;;;;;;19.52;18.83;;;22.40;99.90;;;;;;5024816;28;20212;-63
2023/09/13 01:04:33;;;;;;;19.52;18.83;;;22.50;99.90;;;;;;5021593;28;20706;-63
2023/09/13 01:07:01;;;;;;;18.90;18.30;;;22.50;99.90;;;;;;5024478;28;20240;-63
2023/09/13 01:09:28;;;;;;;20.88;20.10;;;22.50;99.90;;;;;;5023012;28;20216;-63
2023/09/13 01:11:55;;;;;;;18.25;17.65;;;22.50;99.90;;;;;;5021639;28;20252;-64
2023/09/13 01:14:22;;;;;;;18.38;17.67;;;22.40;99.90;;;;;;5027834;28;20231;-63
2023/09/13 01:16:56;;;;;;;19.13;18.42;;;22.50;99.90;;;;;;5031177;28;20538;-63
2023/09/13 01:19:42;;;;;;;17.85;17.25;;;22.50;99.90;;;;;;5031294;28;20588;-65
2023/09/13 01:22:46;;;;;;;19.27;18.58;;;22.40;99.90;;;;;;5031555;28;20208;-65
2023/09/13 01:25:32;;;;;;;17.48;16.88;;;22.40;99.90;;;;;;5031421;28;20562;-63
2023/09/13 01:28:12;;;;;;;17.60;16.98;;;22.20;99.90;;;;;;5031282;28;20247;-63
2023/09/13 01:30:42;;;;;;;17.98;17.38;;;22.20;99.90;;;;;;5031061;28;20220;-63
2023/09/13 01:33:09;;;;;;;18.05;17.38;;;22.30;99.90;;;;;;5031258;28;20216;-64
2023/09/13 01:35:35;;;;;;;18.13;17.52;;;22.20;99.90;;;;;;5030859;28;20791;-64
2023/09/13 01:38:02;;;;;;;18.40;17.67;;;22.20;99.90;;;;;;5031442;28;20230;-63
2023/09/13 01:40:36;;;;;;;19.15;18.45;;;22.20;99.90;;;;;;5031079;28;20211;-65
2023/09/13 01:43:04;;;;;;;19.10;18.40;;;22.10;99.90;;;;;;5024907;28;20233;-65
2023/09/13 01:45:32;;;;;;;21.55;20.75;;;22.10;99.90;;;;;;5020815;28;20205;-64
2023/09/13 01:48:01;;;;;;;17.98;17.38;;;22.10;99.90;;;;;;5030911;28;20220;-65
2023/09/13 01:50:27;;;;;;;22.27;21.48;;;22.10;99.90;;;;;;5031040;28;20279;-62
2023/09/13 01:52:54;;;;;;;21.60;20.85;;;22.00;99.90;;;;;;5032327;28;20738;-62
2023/09/13 01:55:21;;;;;;;21.33;20.52;;;22.00;99.90;;;;;;5034516;28;20235;-64
2023/09/13 01:57:48;;;;;;;18.30;17.70;;;22.00;99.90;;;;;;5033958;28;20670;-63
2023/09/13 02:00:16;;;;;;;19.50;18.80;;;22.00;99.90;;;;;;5034011;28;20214;-62
2023/09/13 02:02:43;;;;;;;19.63;18.92;;;22.00;99.90;;;;;;5034496;28;20258;-63
2023/09/13 02:05:11;;;;;;;18.15;17.55;;;22.20;99.90;;;;;;5034618;28;20216;-63
2023/09/13 02:07:38;;;;;;;19.73;19.02;;;22.20;99.90;;;;;;5032417;28;20205;-64
2023/09/13 02:10:05;;;;;;;18.88;18.20;;;22.20;99.90;;;;;;5024677;28;20197;-63
2023/09/13 02:12:32;;;;;;;18.98;18.35;;;22.10;99.90;;;;;;5018484;28;20237;-63
2023/09/13 02:14:59;;;;;;;20.25;19.55;;;22.20;99.90;;;;;;5034679;28;20283;-62
2023/09/13 02:17:26;;;;;;;19.02;18.33;;;22.10;99.90;;;;;;5034624;28;20291;-64
2023/09/13 02:19:53;;;;;;;19.85;19.15;;;22.00;99.90;;;;;;5034669;28;20212;-62
2023/09/13 02:22:21;;;;;;;19.38;18.67;;;22.00;99.90;;;;;;5034089;28;20640;-64
2023/09/13 02:24:48;;;;;;;19.85;19.15;;;22.00;99.90;;;;;;5033225;28;21003;-64
2023/09/13 02:27:14;;;;;;;19.85;19.15;;;22.10;99.90;;;;;;5033590;28;20204;-63
2023/09/13 02:29:41;;;;;;;18.85;18.17;;;22.10;99.90;;;;;;5033860;28;20211;-63
2023/09/13 02:32:08;;;;;;;19.90;19.20;;;22.00;99.90;;;;;;5019874;28;20216;-63
2023/09/13 02:34:35;;;;;;;16.40;15.80;;;22.10;99.90;;;;;;5014010;28;20221;-63
2023/09/13 02:37:01;;;;;;;18.67;17.98;;;22.30;99.90;;;;;;5014229;28;20221;-63
2023/09/13 02:39:34;;;;;;;19.80;19.10;;;22.40;99.90;;;;;;5014836;28;20202;-63
2023/09/13 02:42:02;;;;;;;19.15;18.45;;;22.30;99.90;;;;;;5020902;28;20586;-64
2023/09/13 02:44:29;;;;;;;18.63;17.95;;;22.30;99.90;;;;;;5013232;28;20247;-63
2023/09/13 02:46:55;;;;;;;20.42;19.73;;;22.20;99.90;;;;;;5014111;28;20631;-63
2023/09/13 02:49:23;;;;;;;19.65;18.95;;;22.10;99.90;;;;;;5014163;28;20209;-64
2023/09/13 02:51:51;;;;;;;18.08;17.48;;;22.00;99.90;;;;;;5014825;28;20633;-63
2023/09/13 02:54:18;;;;;;;18.15;17.52;;;22.00;99.90;;;;;;5013791;28;20307;-64
2023/09/13 02:56:47;;;;;;;18.00;17.27;;;22.00;99.90;;;;;;5013967;28;20232;-63
2023/09/13 02:59:13;;;;;;;18.33;17.73;;;22.00;99.90;;;;;;5013844;28;20205;-63
2023/09/13 03:01:42;;;;;;;20.02;19.33;;;22.10;99.90;;;;;;5013933;28;20220;-63
2023/09/13 03:04:09;;;;;;;20.08;19.38;;;22.00;99.90;;;;;;5013660;28;20961;-63
2023/09/13 03:06:36;;;;;;;18.95;18.25;;;22.10;99.90;;;;;;5015024;28;20201;-63
2023/09/13 03:09:04;;;;;;;19.45;18.75;;;22.20;99.90;;;;;;5033420;28;20276;-65
2023/09/13 03:11:31;;;;;;;18.02;17.33;;;22.20;99.90;;;;;;5033030;28;20262;-64
2023/09/13 03:13:59;;;;;;;18.65;18.05;;;22.20;99.90;;;;;;5033465;28;20217;-63
2023/09/13 03:16:26;;;;;;;21.13;20.42;;;22.20;99.90;;;;;;5034158;28;20220;-63
2023/09/13 03:18:54;;;;;;;20.23;19.52;;;22.20;99.90;;;;;;5035720;28;20201;-65
2023/09/13 03:21:21;;;;;;;21.90;21.10;;;22.20;99.90;;;;;;5035941;28;20200;-64
2023/09/13 03:23:50;;;;;;;19.10;18.40;;;22.30;99.90;;;;;;5034454;28;20312;-64
2023/09/13 03:26:18;;;;;;;27.15;26.20;;;22.40;99.90;;;;;;5033728;28;20205;-64
2023/09/13 03:28:46;;;;;;;25.20;24.33;;;22.40;99.90;;;;;;5032807;28;20619;-63
2023/09/13 03:31:15;;;;;;;20.10;19.30;;;22.20;99.90;;;;;;5033785;28;20226;-64
2023/09/13 03:33:43;;;;;;;26.92;26.00;;;22.10;99.90;;;;;;5024277;28;20228;-63
2023/09/13 03:36:11;;;;;;;28.27;27.27;;;22.00;99.90;;;;;;5032847;28;20595;-63
2023/09/13 03:38:39;;;;;;;27.73;26.77;;;22.00;99.90;;;;;;5032928;28;20201;-64
2023/09/13 03:41:06;;;;;;;33.00;31.85;;;22.00;99.90;;;;;;5032789;28;20616;-63
2023/09/13 03:43:33;;;;;;;28.88;27.85;;;21.90;99.90;;;;;;5065834;22;20242;-63
2023/09/13 03:46:00;;;;;;;26.17;25.23;;;21.80;99.90;;;;;;5079999;28;20195;-62
2023/09/13 03:48:30;;;;;;;30.10;29.05;;;21.80;99.90;;;;;;5072176;28;20552;-62
2023/09/13 03:50:57;;;;;;;26.75;25.83;;;21.70;99.90;;;;;;5072606;28;20233;-62
2023/09/13 03:53:24;;;;;;;28.73;27.73;;;21.70;99.90;;;;;;5072201;28;20219;-62
2023/09/13 03:55:50;;;;;;;35.42;34.20;;;21.70;99.90;;;;;;5092243;28;20226;-63
2023/09/13 03:58:17;;;;;;;33.95;32.75;;;21.70;99.90;;;;;;5092715;28;20199;-62
2023/09/13 04:00:44;;;;;;;41.00;39.55;;;21.70;99.90;;;;;;5092530;28;20293;-63
2023/09/13 04:03:12;;;;;;;43.38;41.85;;;21.70;99.90;;;;;;5092242;28;20230;-63
2023/09/13 04:05:40;;;;;;;40.83;39.38;;;21.70;99.90;;;;;;5092671;28;20577;-64
2023/09/13 04:08:07;;;;;;;29.17;28.13;;;21.70;99.90;;;;;;5092394;28;20289;-63
2023/09/13 04:10:34;;;;;;;37.60;36.28;;;21.70;99.90;;;;;;5092323;28;20195;-63
2023/09/13 04:13:01;;;;;;;57.97;55.92;;;21.70;99.90;;;;;;5091851;28;20248;-63
2023/09/13 04:15:28;;;;;;;42.60;41.10;;;21.70;99.90;;;;;;5091353;28;20302;-63
2023/09/13 04:17:55;;;;;;;35.53;34.20;;;21.60;99.90;;;;;;5084159;28;20198;-62
2023/09/13 04:20:22;;;;;;;51.58;49.75;;;21.60;99.90;;;;;;5092591;28;20209;-63
2023/09/13 04:22:51;;;;;;;55.25;53.33;;;21.60;99.90;;;;;;5091761;28;20665;-61
2023/09/13 04:25:18;;;;;;;52.40;50.55;;;21.60;99.90;;;;;;5092206;28;20222;-63
2023/09/13 04:27:45;;;;;;;49.60;47.85;;;21.60;99.90;;;;;;5091915;28;20203;-63
2023/09/13 04:30:13;;;;;;;66.25;63.90;;;21.60;99.90;;;;;;5092357;28;20203;-61
2023/09/13 04:32:40;;;;;;;47.60;45.90;;;21.60;99.90;;;;;;5092000;28;20199;-62
2023/09/13 04:35:08;;;;;;;49.95;48.17;;;21.60;99.90;;;;;;5091956;28;20342;-62
2023/09/13 04:37:35;;;;;;;45.63;44.03;;;21.70;99.90;;;;;;5093475;28;20195;-63
2023/09/13 04:40:06;;;;;;;36.83;35.55;;;21.70;99.90;;;;;;5091659;28;20195;-64
2023/09/13 04:42:37;;;;;;;55.45;53.45;;;21.70;99.90;;;;;;5089533;28;20213;-64
2023/09/13 04:45:05;;;;;;;33.63;32.42;;;21.70;99.90;;;;;;5091340;28;20712;-63
2023/09/13 04:47:32;;;;;;;33.72;32.53;;;21.70;99.90;;;;;;5091900;28;20210;-62
2023/09/13 04:49:58;;;;;;;43.72;42.20;;;21.80;99.90;;;;;;5091872;28;20657;-63
2023/09/13 04:52:25;;;;;;;43.28;41.70;;;21.80;99.90;;;;;;5092060;28;20198;-64
2023/09/13 04:54:52;;;;;;;42.67;41.17;;;21.80;99.90;;;;;;5091761;28;20305;-63
2023/09/13 04:57:20;;;;;;;39.58;38.17;;;21.90;99.90;;;;;;5093963;28;20206;-63
2023/09/13 04:59:48;;;;;;;36.08;34.78;;;22.00;99.90;;;;;;5093810;28;20289;-62
2023/09/13 05:02:15;;;;;;;35.17;33.92;;;22.00;99.90;;;;;;5093150;28;20652;-63
2023/09/13 05:04:42;;;;;;;32.63;31.48;;;22.10;99.90;;;;;;5091941;28;20211;-62
2023/09/13 05:07:09;;;;;;;37.50;36.17;;;22.10;99.90;;;;;;5092130;28;20293;-63
2023/09/13 05:09:37;;;;;;;38.55;37.13;;;22.10;99.90;;;;;;5091948;28;20198;-62
2023/09/13 05:12:04;;;;;;;41.80;40.30;;;22.10;99.90;;;;;;5092002;28;20198;-62
2023/09/13 05:14:33;;;;;;;37.13;35.78;;;22.10;99.90;;;;;;5091098;28;20225;-62
2023/09/13 05:17:00;;;;;;;45.95;44.30;;;22.20;99.90;;;;;;5086211;28;20914;-62
2023/09/13 05:19:27;;;;;;;45.55;43.90;;;22.20;99.90;;;;;;5090990;28;20627;-61
2023/09/13 05:21:54;;;;;;;26.58;25.60;;;22.20;99.90;;;;;;5090851;28;20208;-62
2023/09/13 05:24:21;;;;;;;35.22;33.95;;;22.30;99.90;;;;;;5090289;28;20232;-63
2023/09/13 05:26:47;;;;;;;38.38;37.00;;;22.30;99.90;;;;;;5095338;28;20198;-62
2023/09/13 05:29:14;;;;;;;53.67;51.78;;;22.20;99.90;;;;;;5098163;28;20210;-63
2023/09/13 05:31:42;;;;;;;45.80;44.15;;;22.30;99.90;;;;;;5097180;28;20194;-62
2023/09/13 05:34:09;;;;;;;48.90;47.05;;;22.00;99.90;;;;;;5095998;28;20225;-64
2023/09/13 05:36:36;;;;;;;38.92;37.53;;;21.70;99.90;;;;;;5095221;28;20219;-63
2023/09/13 05:39:04;;;;;;;41.13;39.60;;;21.60;99.90;;;;;;5095524;28;20572;-63
2023/09/13 05:41:31;;;;;;;38.05;36.67;;;21.60;99.90;;;;;;5095499;28;20225;-63
2023/09/13 05:43:57;;;;;;;42.40;40.85;;;21.70;99.90;;;;;;5086645;28;20737;-62
2023/09/13 05:46:24;;;;;;;58.55;56.47;;;21.80;99.90;;;;;;5094758;28;20195;-64
2023/09/13 05:48:52;;;;;;;57.58;55.53;;;21.90;99.90;;;;;;5099456;28;20221;-63
2023/09/13 05:51:19;;;;;;;52.55;50.67;;;22.00;99.90;;;;;;5094657;28;20205;-62
2023/09/13 05:53:46;;;;;;;42.25;40.75;;;22.10;99.90;;;;;;5095322;28;20229;-62
2023/09/13 05:56:13;;;;;;;35.28;34.08;;;22.10;99.90;;;;;;5097993;28;20225;-62
2023/09/13 05:58:43;;;;;;;36.88;35.58;;;22.00;99.90;;;;;;5096212;28;20202;-63
2023/09/13 06:01:10;;;;;;;36.72;35.42;;;21.80;99.90;;;;;;5097467;28;20707;-61
2023/09/13 06:03:37;;;;;;;35.28;34.08;;;21.80;99.90;;;;;;5096918;28;20614;-62
2023/09/13 06:06:05;;;;;;;38.65;37.28;;;21.70;99.90;;;;;;5095085;28;20289;-62
2023/09/13 06:08:32;;;;;;;34.85;33.63;;;21.70;99.90;;;;;;5094716;28;20199;-61
2023/09/13 06:10:59;;;;;;;36.85;35.55;;;21.60;99.90;;;;;;5094944;28;20289;-63
2023/09/13 06:13:26;;;;;;;37.03;35.72;;;21.70;99.90;;;;;;5094111;28;20225;-63
2023/09/13 06:15:52;;;;;;;37.08;35.78;;;21.70;99.90;;;;;;5094785;28;20218;-62
2023/09/13 06:18:19;;;;;;;36.88;35.22;;;21.60;99.90;;;;;;5094633;28;20559;-63
2023/09/13 06:20:46;;;;;;;38.85;37.50;;;21.60;99.90;;;;;;5094819;28;20207;-62
2023/09/13 06:23:34;;;;;;;41.53;40.05;;;21.60;99.90;;;;;;5094919;28;20199;-62
2023/09/13 06:26:01;;;;;;;37.65;36.33;;;21.60;99.90;;;;;;5086956;28;20286;-63
2023/09/13 06:28:28;;;;;;;36.95;35.63;;;21.70;99.90;;;;;;5096811;28;20199;-63
2023/09/13 06:30:56;;;;;;;42.78;41.28;;;21.80;99.90;;;;;;5095510;28;20202;-62
2023/09/13 06:33:23;;;;;;;38.95;37.47;;;21.80;99.90;;;;;;5093865;28;20218;-62
2023/09/13 06:35:50;;;;;;;40.58;39.10;;;21.80;99.90;;;;;;5094200;28;20223;-61
2023/09/13 06:38:18;;;;;;;38.10;36.65;;;21.80;99.90;;;;;;5093435;28;20680;-64
2023/09/13 06:40:47;;;;;;;39.67;38.28;;;21.80;99.90;;;;;;5094444;28;20631;-63
2023/09/13 06:43:14;;;;;;;37.25;35.92;;;21.80;99.90;;;;;;5094227;28;20369;-63
2023/09/13 06:45:41;;;;;;;41.58;40.10;;;21.80;99.90;;;;;;5094995;28;20205;-62
2023/09/13 06:48:08;;;;;;;37.28;35.90;;;21.80;99.90;;;;;;5095579;28;20198;-62
2023/09/13 06:50:35;;;;;;;33.80;32.60;;;21.90;99.90;;;;;;5096097;28;20199;-62
2023/09/13 06:53:02;;;;;;;37.63;36.30;;;21.80;99.90;;;;;;5093626;28;20930;-62
2023/09/13 06:55:32;;;;;;;35.17;33.95;;;21.90;99.90;;;;;;5094138;28;20665;-62
2023/09/13 06:58:01;;;;;;;36.78;35.47;;;21.90;99.90;;;;;;5093573;28;20198;-62
2023/09/13 07:00:28;;;;;;;38.42;37.05;;;21.90;99.90;;;;;;5098546;28;20211;-64
2023/09/13 07:02:55;;;;;;;38.00;36.70;;;21.90;99.90;;;;;;5093819;28;20209;-63
2023/09/13 07:05:22;;;;;;;35.88;34.63;;;22.00;99.90;;;;;;5093699;28;20293;-61
2023/09/13 07:07:49;;;;;;;37.83;36.50;;;22.00;99.90;;;;;;5100086;28;20290;-62
2023/09/13 07:10:16;;;;;;;37.95;36.63;;;22.00;99.90;;;;;;5096507;28;20648;-62
2023/09/13 07:12:44;;;;;;;34.88;33.58;;;22.00;99.90;;;;;;5094887;28;20205;-63
2023/09/13 07:15:11;;;;;;;35.17;33.95;;;22.10;99.90;;;;;;5094448;28;20573;-65
2023/09/13 07:17:38;;;;;;;39.28;37.85;;;22.10;99.90;;;;;;5099624;28;20203;-62
2023/09/13 07:20:06;;;;;;;38.28;36.90;;;22.20;99.90;;;;;;5096963;28;20222;-63
2023/09/13 07:22:33;;;;;;;36.88;35.58;;;22.30;99.90;;;;;;5095216;28;20203;-63
2023/09/13 07:25:00;;;;;;;34.10;32.88;;;22.10;99.90;;;;;;5092904;28;20215;-63
2023/09/13 07:27:27;;;;;;;17.50;16.90;;;22.20;99.90;;;;;;5098104;28;20205;-62
2023/09/13 07:29:55;;;;;;;16.15;15.55;;;22.30;99.90;;;;;;5108811;28;20616;-63
2023/09/13 07:32:22;;;;;;;17.25;16.65;;;22.20;99.90;;;;;;5095853;28;20209;-63
2023/09/13 07:34:48;;;;;;;17.20;16.60;;;22.20;99.90;;;;;;5096170;28;20238;-62
2023/09/13 07:37:15;;;;;;;16.20;15.63;;;22.30;99.90;;;;;;5093369;28;20232;-64
2023/09/13 07:39:42;;;;;;;22.60;21.70;;;22.50;99.90;;;;;;5093225;28;20209;-62
2023/09/13 07:42:11;;;;;;;19.47;18.80;;;22.50;99.90;;;;;;5094644;28;20744;-63
2023/09/13 07:44:37;;;;;;;18.05;17.45;;;22.30;99.90;;;;;;5095758;28;20238;-63
2023/09/13 07:47:06;;;;;;;16.88;16.27;;;22.20;99.90;;;;;;5096773;28;20205;-63
2023/09/13 07:49:33;;;;;;;18.60;17.95;;;22.20;99.90;;;;;;5095428;28;20198;-62
2023/09/13 07:52:00;;;;;;;25.67;24.58;;;22.10;99.90;;;;;;5094873;28;20661;-62
2023/09/13 07:54:26;;;;;;;22.52;21.75;;;22.10;99.90;;;;;;5093740;28;20218;-63
2023/09/13 07:56:53;;;;;;;50.72;48.88;;;22.00;99.90;;;;;;5093915;28;20222;-62
2023/09/13 07:59:20;;;;;;;205.15;190.55;;;21.90;99.90;;;;;;5093697;28;20203;-62
2023/09/13 08:01:47;;;;;;;66.07;63.70;;;21.80;99.90;;;;;;5093202;28;20202;-62
2023/09/13 08:04:15;;;;;;;52.45;50.55;;;21.50;99.90;;;;;;5093124;28;20305;-63
2023/09/13 08:06:42;;;;;;;35.85;34.58;;;21.50;99.90;;;;;;5092854;28;20281;-62
2023/09/13 08:09:09;;;;;;;38.35;36.95;;;21.50;99.90;;;;;;5093107;28;20202;-62
2023/09/13 08:11:36;;;;;;;35.63;34.33;;;21.50;99.90;;;;;;5094024;28;20295;-63
2023/09/13 08:14:03;;;;;;;40.92;39.50;;;21.40;99.90;;;;;;5094658;28;20305;-63
2023/09/13 08:16:30;;;;;;;42.03;40.53;;;21.30;99.90;;;;;;5095386;28;20214;-62
2023/09/13 08:18:57;;;;;;;39.38;37.97;;;21.20;99.90;;;;;;5093243;28;20207;-62
2023/09/13 08:21:25;;;;;;;40.90;39.42;;;21.10;99.90;;;;;;5092303;28;20553;-62
2023/09/13 08:23:51;;;;;;;37.53;36.20;;;20.90;99.90;;;;;;5091791;28;20225;-63
2023/09/13 08:26:18;;;;;;;33.88;32.67;;;20.90;99.90;;;;;;5092283;28;20198;-63
2023/09/13 08:28:45;;;;;;;30.75;29.65;;;20.90;99.90;;;;;;5091990;28;20202;-63
2023/09/13 08:31:12;;;;;;;34.47;33.17;;;20.90;99.90;;;;;;5092351;28;20198;-61
2023/09/13 08:33:39;;;;;;;38.63;37.22;;;20.80;99.90;;;;;;5093059;28;20218;-62
2023/09/13 08:36:07;;;;;;;27.75;26.77;;;20.70;99.90;;;;;;5093834;28;20244;-62
2023/09/13 08:38:35;;;;;;;28.02;27.02;;;20.80;99.90;;;;;;5094494;28;20205;-61
2023/09/13 08:41:03;;;;;;;29.23;28.23;;;20.80;99.90;;;;;;5091902;28;20222;-63
2023/09/13 08:43:30;;;;;;;29.30;28.27;;;20.80;99.90;;;;;;5091252;28;20228;-62
2023/09/13 08:45:57;;;;;;;28.73;27.73;;;20.80;99.90;;;;;;5091869;28;20672;-61
2023/09/13 08:48:25;;;;;;;33.15;32.00;;;20.90;99.90;;;;;;5091349;28;20201;-62
2023/09/13 08:50:53;;;;;;;32.83;31.63;;;20.90;99.90;;;;;;5091662;28;20556;-62
2023/09/13 08:53:21;;;;;;;31.40;30.30;;;20.90;99.90;;;;;;5091303;28;20225;-62
2023/09/13 08:55:50;;;;;;;30.88;29.77;;;20.90;99.90;;;;;;5091447;28;20206;-62
2023/09/13 08:58:18;;;;;;;30.85;29.75;;;20.90;99.90;;;;;;5091410;28;20206;-63
2023/09/13 09:00:47;;;;;;;28.10;27.13;;;20.90;99.90;;;;;;5090914;28;20256;-62
2023/09/13 09:03:18;;;;;;;29.25;28.25;;;20.80;99.90;;;;;;5083299;28;20295;-62
2023/09/13 09:05:46;;;;;;;30.80;29.70;;;20.90;99.90;;;;;;5091356;28;20206;-62
2023/09/13 09:08:14;;;;;;;33.60;32.40;;;21.00;99.90;;;;;;5083308;28;20729;-62
2023/09/13 09:10:42;;;;;;;30.85;29.75;;;21.00;99.90;;;;;;5091875;28;20202;-62
2023/09/13 09:13:11;;;;;;;33.90;32.70;;;21.00;99.90;;;;;;5091696;28;20204;-61
2023/09/13 09:15:40;;;;;;;32.65;31.52;;;21.00;99.90;;;;;;5092202;28;20660;-63
2023/09/13 09:18:12;;;;;;;29.92;28.88;;;21.00;99.90;;;;;;5092246;28;20293;-63
2023/09/13 09:20:41;;;;;;;28.38;27.38;;;21.00;99.90;;;;;;5092406;28;20198;-62
2023/09/13 09:23:09;;;;;;;32.30;31.20;;;21.00;99.90;;;;;;5091916;28;20285;-62
2023/09/13 09:25:39;;;;;;;30.45;29.35;;;21.10;99.90;;;;;;5098921;28;20206;-63
2023/09/13 09:28:05;;;;;;;27.92;26.92;;;21.10;99.90;;;;;;5096574;28;20207;-63
2023/09/13 09:30:34;;;;;;;26.77;25.85;;;21.20;99.90;;;;;;5099885;28;20289;-61
2023/09/13 09:33:03;;;;;;;26.45;25.55;;;21.30;99.90;;;;;;5094122;28;20203;-63
2023/09/13 09:35:30;;;;;;;30.17;29.08;;;21.30;99.90;;;;;;5096938;28;20198;-62
2023/09/13 09:37:57;;;;;;;28.20;27.25;;;21.30;99.90;;;;;;5090642;28;20695;-62
2023/09/13 09:40:24;;;;;;;26.25;25.30;;;21.30;99.90;;;;;;5091651;28;20212;-62
2023/09/13 09:42:55;;;;;;;25.90;25.00;;;21.50;99.90;;;;;;5090953;28;20229;-62
2023/09/13 09:45:22;;;;;;;26.48;25.55;;;21.50;99.90;;;;;;5085993;22;20251;-64
2023/09/13 09:47:53;;;;;;;37.17;35.88;;;21.50;99.90;;;;;;5050287;28;20204;-65
2023/09/13 09:50:23;;;;;;;30.13;29.08;;;21.60;99.90;;;;;;5050323;28;20291;-66
2023/09/13 09:52:51;;;;;;;27.63;26.63;;;21.70;99.90;;;;;;5049948;28;20211;-66
2023/09/13 09:55:21;;;;;;;36.47;35.20;;;21.80;99.90;;;;;;5061979;28;20296;-64
2023/09/13 09:57:50;;;;;;;27.58;26.58;;;21.90;99.90;;;;;;5069842;28;20227;-63
2023/09/13 10:00:17;;;;;;;29.20;28.20;;;22.00;99.90;;;;;;5070027;28;20202;-66
2023/09/13 10:02:45;;;;;;;28.13;27.15;;;22.00;99.90;;;;;;5069675;28;20764;-66
2023/09/13 10:05:16;;;;;;;31.27;30.17;;;22.10;99.90;;;;;;5070631;28;20754;-67
2023/09/13 10:07:51;;;;;;;32.55;31.40;;;22.20;99.90;;;;;;5069646;28;20206;-66
2023/09/13 10:10:29;;;;;;;31.08;29.98;;;22.30;99.90;;;;;;5069821;28;20229;-65
2023/09/13 10:12:56;;;;;;;29.95;28.85;;;22.40;99.90;;;;;;5070994;28;20553;-65
2023/09/13 10:15:24;;;;;;;31.25;30.15;;;22.50;99.90;;;;;;5073494;28;20653;-66
2023/09/13 10:17:54;;;;;;;39.03;37.65;;;22.70;99.90;;;;;;5073193;28;20280;-65
2023/09/13 10:20:24;;;;;;;29.73;28.67;;;22.80;99.90;;;;;;5073557;28;20211;-65
2023/09/13 10:22:55;;;;;;;35.08;33.83;;;23.00;99.90;;;;;;5073691;28;20627;-65
2023/09/13 10:25:24;;;;;;;30.75;29.65;;;23.00;99.90;;;;;;5073903;28;20219;-63
2023/09/13 10:27:54;;;;;;;30.17;29.13;;;23.00;99.90;;;;;;5089904;28;20201;-65
2023/09/13 10:30:27;;;;;;;33.45;32.28;;;23.00;99.90;;;;;;5090308;28;20543;-64
2023/09/13 10:32:58;;;;;;;26.00;25.10;;;23.10;99.90;;;;;;5090498;28;20275;-64
2023/09/13 10:35:29;;;;;;;33.28;32.08;;;23.20;99.90;;;;;;5087980;28;20319;-64
2023/09/13 10:38:05;;;;;;;17.77;17.17;;;23.40;99.90;;;;;;5083542;28;20230;-65
2023/09/13 10:40:38;;;;;;;24.60;23.70;;;23.70;99.90;;;;;;5073283;28;20203;-66
2023/09/13 10:43:05;;;;;;;28.80;27.77;;;23.70;99.90;;;;;;5072960;28;20689;-63
2023/09/13 10:45:32;;;;;;;22.42;21.63;;;23.70;99.90;;;;;;5073235;28;20227;-66
2023/09/13 10:48:01;;;;;;;17.83;17.23;;;23.70;99.90;;;;;;5073902;28;20196;-65
2023/09/13 10:50:31;;;;;;;21.25;20.52;;;23.70;99.90;;;;;;5073632;28;20233;-65
2023/09/13 10:53:00;;;;;;;19.95;19.25;;;23.70;99.90;;;;;;5073344;28;20243;-67
2023/09/13 10:55:27;;;;;;;17.80;17.20;;;23.70;99.90;;;;;;5073306;28;20227;-66
2023/09/13 10:57:56;;;;;;;17.58;16.98;;;23.70;99.90;;;;;;5073344;28;20223;-64
2023/09/13 11:00:26;;;;;;;17.30;16.70;;;23.70;99.90;;;;;;5073426;28;20207;-66
2023/09/13 11:02:53;;;;;;;16.27;15.68;;;23.80;99.90;;;;;;5073018;28;20522;-64
2023/09/13 11:05:20;;;;;;;16.83;16.23;;;23.90;99.90;;;;;;5073098;28;20314;-65
2023/09/13 11:07:49;;;;;;;16.50;15.90;;;23.90;99.90;;;;;;5072578;28;20199;-64
2023/09/13 11:10:17;;;;;;;17.00;16.40;;;23.90;99.90;;;;;;5073296;28;20253;-64
2023/09/13 11:12:48;;;;;;;16.80;16.20;;;23.90;99.90;;;;;;5073042;28;20199;-66
2023/09/13 11:15:20;;;;;;;16.30;15.70;;;24.00;99.90;;;;;;5073090;28;20254;-64
2023/09/13 11:17:47;;;;;;;19.40;18.73;;;24.00;99.90;;;;;;5073014;28;20233;-65
2023/09/13 11:20:29;;;;;;;17.80;17.20;;;24.20;99.90;;;;;;5073357;28;20218;-64
2023/09/13 11:23:10;;;;;;;16.90;16.30;;;24.30;99.90;;;;;;5072786;28;20215;-64
2023/09/13 11:25:38;;;;;;;15.65;15.05;;;24.30;99.90;;;;;;5072388;28;20700;-66
2023/09/13 11:28:06;;;;;;;14.40;13.90;;;24.40;99.90;;;;;;5072953;28;20201;-66
2023/09/13 11:30:47;;;;;;;16.17;15.63;;;24.50;99.90;;;;;;5072681;28;20520;-66
2023/09/13 11:33:14;;;;;;;15.02;14.52;;;25.00;99.90;;;;;;5072445;28;20210;-67
2023/09/13 11:35:41;;;;;;;16.65;16.05;;;25.00;99.90;;;;;;5072840;28;20723;-65
2023/09/13 11:38:09;;;;;;;16.58;15.98;;;25.00;99.90;;;;;;5072478;28;20576;-66
2023/09/13 11:40:37;;;;;;;19.20;18.50;;;25.10;99.90;;;;;;5072733;28;20209;-65
2023/09/13 11:43:05;;;;;;;17.40;16.70;;;25.30;99.90;;;;;;5072635;28;20651;-65
2023/09/13 11:45:35;;;;;;;16.98;16.38;;;25.10;99.90;;;;;;5072600;28;20314;-66
2023/09/13 11:48:04;;;;;;;16.98;16.38;;;25.10;99.90;;;;;;5073460;28;20204;-66
2023/09/13 11:50:42;;;;;;;16.10;15.52;;;25.00;99.90;;;;;;5073749;28;20234;-66
2023/09/13 11:53:13;;;;;;;18.13;17.52;;;25.00;99.90;;;;;;5073003;28;20364;-65
2023/09/13 11:55:44;;;;;;;19.38;18.67;;;25.10;99.90;;;;;;5073090;28;20310;-64
2023/09/13 11:58:16;;;;;;;18.55;17.85;;;25.00;99.90;;;;;;5073249;28;20207;-66
2023/09/13 12:00:43;;;;;;;18.13;17.52;;;24.90;99.90;;;;;;5072470;28;20215;-64
2023/09/13 12:03:10;;;;;;;18.77;18.13;;;25.00;99.90;;;;;;5072450;28;20203;-63
2023/09/13 12:05:39;;;;;;;17.38;16.77;;;25.00;99.90;;;;;;5072408;28;20225;-65
2023/09/13 12:08:21;;;;;;;17.42;16.83;;;25.00;99.90;;;;;;5072747;28;20222;-65
2023/09/13 12:10:50;;;;;;;16.70;16.10;;;25.00;99.90;;;;;;5072315;28;20592;-65
2023/09/13 12:13:17;;;;;;;18.67;18.05;;;25.00;99.90;;;;;;5071728;28;20203;-64
2023/09/13 12:16:02;;;;;;;22.05;21.25;;;25.10;99.90;;;;;;5071571;28;20227;-64
2023/09/13 12:18:31;;;;;;;17.83;17.23;;;25.20;99.90;;;;;;5071957;28;20227;-64
2023/09/13 12:20:58;;;;;;;18.95;18.33;;;25.20;99.90;;;;;;5071445;28;20286;-65
2023/09/13 12:23:27;;;;;;;18.42;17.75;;;25.30;99.90;;;;;;5071661;28;20195;-65
2023/09/13 12:25:57;;;;;;;17.10;16.50;;;25.30;99.90;;;;;;5071354;28;20750;-67
2023/09/13 12:28:28;;;;;;;17.75;17.15;;;25.40;99.90;;;;;;5071568;28;20231;-66
2023/09/13 12:30:56;;;;;;;17.50;16.90;;;25.50;99.90;;;;;;5071424;28;20203;-66